createdAt,value
2019-02-20T00:00:23.718Z,19.70
2019-02-20T00:03:29.561Z,19.70
2019-02-20T00:06:34.979Z,19.70
2019-02-20T00:09:40.385Z,19.60
2019-02-20T00:12:47.282Z,19.60
2019-02-20T00:15:53.390Z,19.60
2019-02-20T00:18:58.781Z,19.60
2019-02-20T00:22:04.266Z,19.50
2019-02-20T00:25:11.310Z,19.50
2019-02-20T00:28:16.838Z,19.50
2019-02-20T00:31:22.916Z,19.50
2019-02-20T00:34:29.444Z,19.40
2019-02-20T00:37:35.584Z,19.40
2019-02-20T00:40:41.233Z,19.40
2019-02-20T00:43:53.403Z,19.40
2019-02-20T00:47:14.138Z,19.30
2019-02-20T00:50:21.232Z,19.30
2019-02-20T00:53:31.252Z,19.30
2019-02-20T00:56:36.603Z,19.30
2019-02-20T00:59:42.391Z,19.20
2019-02-20T01:02:47.790Z,19.20
2019-02-20T01:05:54.419Z,19.20
2019-02-20T01:08:59.781Z,19.20
2019-02-20T01:12:05.476Z,19.10
2019-02-20T01:15:11.451Z,19.10
2019-02-20T01:18:16.845Z,19.10
2019-02-20T01:21:22.368Z,19.10
2019-02-20T01:24:28.862Z,19.10
2019-02-20T01:27:34.395Z,19.00
2019-02-20T01:30:39.768Z,19.00
2019-02-20T01:33:45.161Z,19.00
2019-02-20T01:36:50.587Z,19.00
2019-02-20T01:39:55.995Z,19.00
2019-02-20T01:43:01.387Z,18.90
2019-02-20T01:46:06.769Z,18.90
2019-02-20T01:49:14.008Z,18.90
2019-02-20T01:52:19.717Z,18.90
2019-02-20T01:55:26.688Z,18.90
2019-02-20T01:58:32.504Z,18.80
2019-02-20T02:01:37.930Z,18.80
2019-02-20T02:04:43.460Z,18.80
2019-02-20T02:07:48.862Z,18.80
2019-02-20T02:10:54.297Z,18.80
2019-02-20T02:14:01.598Z,18.80
2019-02-20T02:17:07.044Z,18.70
2019-02-20T02:20:13.921Z,18.70
2019-02-20T02:23:20.089Z,18.70
2019-02-20T02:26:25.923Z,18.70
2019-02-20T02:29:31.338Z,18.60
2019-02-20T02:32:36.817Z,18.60
2019-02-20T02:35:42.201Z,18.60
2019-02-20T02:38:49.238Z,18.60
2019-02-20T02:41:54.954Z,18.60
2019-02-20T02:45:00.463Z,18.60
2019-02-20T02:48:06.117Z,18.50
2019-02-20T02:51:11.558Z,18.50
2019-02-20T02:54:16.970Z,18.50
2019-02-20T02:57:22.370Z,18.50
2019-02-20T03:00:27.752Z,18.50
2019-02-20T03:03:33.134Z,18.50
2019-02-20T03:06:39.523Z,18.50
2019-02-20T03:09:46.606Z,18.40
2019-02-20T03:12:52.017Z,18.40
2019-02-20T03:15:57.818Z,18.40
2019-02-20T03:19:03.660Z,18.40
2019-02-20T03:22:09.412Z,18.30
2019-02-20T03:25:15.114Z,18.30
2019-02-20T03:28:20.514Z,18.30
2019-02-20T03:31:25.944Z,18.40
2019-02-20T03:34:31.333Z,18.40
2019-02-20T03:37:36.815Z,18.50
2019-02-20T03:40:44.180Z,18.50
2019-02-20T03:43:49.673Z,18.60
2019-02-20T03:46:55.403Z,18.60
2019-02-20T03:50:00.800Z,18.70
2019-02-20T03:53:08.252Z,18.80
2019-02-20T03:56:13.659Z,18.80
2019-02-20T03:59:19.160Z,18.90
2019-02-20T04:02:24.604Z,18.90
2019-02-20T04:05:31.495Z,19.00
2019-02-20T04:08:37.311Z,19.10
2019-02-20T04:11:42.671Z,19.10
2019-02-20T04:14:48.929Z,19.20
2019-02-20T04:17:54.670Z,19.20
2019-02-20T04:21:00.102Z,19.30
2019-02-20T04:24:07.316Z,19.40
2019-02-20T04:27:14.268Z,19.40
2019-02-20T04:30:19.695Z,19.40
2019-02-20T04:33:25.453Z,19.40
2019-02-20T04:36:30.853Z,19.40
2019-02-20T04:39:36.232Z,19.40
2019-02-20T04:42:42.342Z,19.40
2019-02-20T04:45:48.935Z,19.40
2019-02-20T04:48:54.353Z,19.40
2019-02-20T04:51:59.778Z,19.30
2019-02-20T04:55:08.056Z,19.30
2019-02-20T04:58:20.765Z,19.30
2019-02-20T05:01:32.519Z,19.30
2019-02-20T05:04:41.474Z,19.00
2019-02-20T05:07:46.878Z,19.20
2019-02-20T05:10:52.642Z,19.20
2019-02-20T05:13:59.621Z,19.10
2019-02-20T05:17:05.048Z,19.10
2019-02-20T05:20:10.577Z,19.10
2019-02-20T05:23:16.677Z,19.00
2019-02-20T05:26:22.145Z,19.10
2019-02-20T05:29:27.809Z,19.30
2019-02-20T05:32:33.341Z,19.60
2019-02-20T05:35:38.791Z,19.80
2019-02-20T05:38:44.158Z,19.90
2019-02-20T05:41:49.851Z,20.00
2019-02-20T05:44:55.252Z,20.10
2019-02-20T05:48:00.647Z,20.20
2019-02-20T05:51:06.276Z,20.30
2019-02-20T05:54:13.774Z,20.40
2019-02-20T05:57:20.273Z,20.50
2019-02-20T06:00:25.657Z,20.60
2019-02-20T06:03:32.890Z,20.70
2019-02-20T06:06:38.300Z,20.80
2019-02-20T06:09:43.661Z,20.90
2019-02-20T06:12:49.083Z,21.00
2019-02-20T06:15:54.480Z,21.10
2019-02-20T06:19:00.243Z,21.10
2019-02-20T06:22:05.701Z,21.30
2019-02-20T06:25:14.688Z,21.30
2019-02-20T06:28:22.140Z,21.50
2019-02-20T06:31:27.538Z,21.70
2019-02-20T06:34:35.108Z,21.80
2019-02-20T06:37:40.883Z,21.90
2019-02-20T06:40:46.293Z,22.10
2019-02-20T06:43:52.692Z,22.20
2019-02-20T06:47:00.019Z,22.30
2019-02-20T06:50:05.828Z,22.40
2019-02-20T06:53:11.998Z,22.50
2019-02-20T06:56:17.796Z,22.50
2019-02-20T06:59:24.133Z,22.60
2019-02-20T07:02:29.789Z,22.70
2019-02-20T07:05:42.741Z,22.80
2019-02-20T07:09:33.893Z,22.90
2019-02-20T07:13:30.918Z,22.90
2019-02-20T07:17:36.981Z,23.00
2019-02-20T07:21:50.465Z,23.00
2019-02-20T07:25:24.071Z,23.00
2019-02-20T07:29:41.820Z,23.10
2019-02-20T07:32:47.362Z,23.10
2019-02-20T07:35:53.283Z,23.00
2019-02-20T07:38:58.649Z,22.90
2019-02-20T07:42:04.029Z,22.80
2019-02-20T07:45:15.477Z,22.60
2019-02-20T07:48:21.197Z,22.40
2019-02-20T07:51:26.714Z,22.30
2019-02-20T07:54:32.111Z,22.20
2019-02-20T07:57:37.524Z,22.10
2019-02-20T08:00:43.979Z,22.00
2019-02-20T08:03:49.372Z,21.90
2019-02-20T08:06:54.768Z,21.80
2019-02-20T08:10:01.314Z,21.80
2019-02-20T08:13:06.855Z,21.70
2019-02-20T08:16:12.308Z,21.60
2019-02-20T08:19:18.258Z,21.50
2019-02-20T08:22:23.996Z,21.40
2019-02-20T08:25:29.875Z,21.30
2019-02-20T08:28:36.663Z,21.20
2019-02-20T08:31:44.110Z,21.20
2019-02-20T08:34:49.937Z,21.10
2019-02-20T08:37:55.347Z,21.10
2019-02-20T08:41:00.957Z,21.00
2019-02-20T08:44:06.697Z,21.00
2019-02-20T08:47:12.928Z,20.90
2019-02-20T08:50:20.553Z,20.80
2019-02-20T08:53:25.960Z,20.70
2019-02-20T08:56:31.740Z,20.70
2019-02-20T08:59:37.123Z,20.60
2019-02-20T09:02:42.975Z,20.60
2019-02-20T09:05:48.566Z,20.50
2019-02-20T09:08:54.368Z,20.50
2019-02-20T09:12:00.120Z,20.50
2019-02-20T09:15:06.040Z,20.50
2019-02-20T09:18:12.574Z,20.50
2019-02-20T09:21:18.387Z,20.50
2019-02-20T09:24:24.020Z,20.50
2019-02-20T09:27:29.414Z,20.60
2019-02-20T09:30:34.836Z,20.60
2019-02-20T09:33:52.141Z,20.70
2019-02-20T09:36:57.895Z,20.80
2019-02-20T09:40:03.517Z,20.80
2019-02-20T09:43:19.420Z,20.70
2019-02-20T09:46:28.332Z,20.70
2019-02-20T09:49:36.734Z,20.70
2019-02-20T09:52:52.466Z,20.60
2019-02-20T09:55:57.133Z,20.60
2019-02-20T09:59:02.684Z,20.70
2019-02-20T10:02:08.074Z,20.70
2019-02-20T10:05:13.731Z,20.70
2019-02-20T10:08:19.169Z,20.70
2019-02-20T10:11:24.564Z,20.70
2019-02-20T10:14:29.971Z,20.60
2019-02-20T10:17:36.679Z,20.60
2019-02-20T10:20:42.495Z,20.60
2019-02-20T10:23:50.146Z,20.60
2019-02-20T10:27:00.586Z,20.50
2019-02-20T10:30:03.437Z,20.50
2019-02-20T10:33:08.842Z,20.50
2019-02-20T10:36:14.227Z,20.50
2019-02-20T10:39:19.741Z,20.50
2019-02-20T10:42:25.363Z,20.40
2019-02-20T10:45:31.770Z,20.40
2019-02-20T10:48:37.946Z,20.30
2019-02-20T10:51:43.341Z,20.30
2019-02-20T10:54:57.568Z,20.30
2019-02-20T10:57:59.261Z,20.20
2019-02-20T11:01:04.990Z,20.20
2019-02-20T11:04:10.450Z,20.20
2019-02-20T11:07:16.497Z,20.10
2019-02-20T11:10:21.881Z,20.10
2019-02-20T11:13:27.302Z,20.10
2019-02-20T11:16:33.181Z,20.00
2019-02-20T11:19:38.574Z,20.00
2019-02-20T11:22:43.960Z,19.90
2019-02-20T11:25:49.778Z,19.90
2019-02-20T11:28:55.659Z,19.90
2019-02-20T11:32:02.277Z,19.90
2019-02-20T11:35:08.707Z,19.80
2019-02-20T11:38:14.403Z,19.80
2019-02-20T11:41:20.125Z,19.80
2019-02-20T11:44:44.551Z,19.70
2019-02-20T11:47:51.045Z,19.80
2019-02-20T11:50:57.966Z,19.70
2019-02-20T11:54:05.408Z,19.70
2019-02-20T11:57:10.833Z,19.80
2019-02-20T12:00:16.820Z,19.90
2019-02-20T12:03:22.258Z,20.10
2019-02-20T12:06:27.644Z,20.10
2019-02-20T12:09:34.934Z,20.20
2019-02-20T12:12:40.365Z,20.30
2019-02-20T12:15:46.060Z,20.30
2019-02-20T12:18:52.751Z,20.30
2019-02-20T12:21:58.163Z,20.30
2019-02-20T12:25:03.644Z,20.30
2019-02-20T12:28:09.040Z,20.40
2019-02-20T12:31:14.476Z,20.30
2019-02-20T12:34:20.291Z,20.40
2019-02-20T12:37:25.686Z,20.40
2019-02-20T12:40:31.102Z,20.30
2019-02-20T12:43:38.002Z,20.30
2019-02-20T12:46:43.416Z,20.40
2019-02-20T12:49:48.805Z,20.40
2019-02-20T12:52:54.345Z,20.30
2019-02-20T12:55:59.759Z,20.30
2019-02-20T12:59:07.729Z,20.20
2019-02-20T13:02:13.512Z,20.30
2019-02-20T13:05:20.372Z,20.40
2019-02-20T13:08:26.621Z,20.50
2019-02-20T13:11:32.784Z,20.70
2019-02-20T13:14:38.752Z,20.80
2019-02-20T13:17:45.734Z,20.90
2019-02-20T13:20:51.852Z,21.00
2019-02-20T13:23:59.069Z,21.10
2019-02-20T13:27:08.645Z,21.20
2019-02-20T13:30:12.648Z,21.30
2019-02-20T13:33:18.069Z,21.40
2019-02-20T13:36:23.495Z,21.50
2019-02-20T13:39:30.559Z,21.60
2019-02-20T13:42:36.312Z,21.70
2019-02-20T13:45:42.004Z,21.80
2019-02-20T13:48:47.563Z,21.80
2019-02-20T13:51:53.476Z,21.90
2019-02-20T13:54:59.170Z,21.90
2019-02-20T13:58:04.918Z,22.00
2019-02-20T14:01:10.845Z,22.00
2019-02-20T14:04:18.035Z,22.10
2019-02-20T14:07:23.822Z,22.10
2019-02-20T14:10:29.329Z,22.20
2019-02-20T14:13:36.693Z,22.20
2019-02-20T14:16:42.698Z,22.30
2019-02-20T14:19:48.474Z,22.40
2019-02-20T14:22:53.877Z,22.30
2019-02-20T14:26:00.577Z,22.40
2019-02-20T14:29:06.185Z,22.40
2019-02-20T14:32:12.048Z,22.50
2019-02-20T14:35:17.761Z,22.50
2019-02-20T14:38:23.141Z,22.50
2019-02-20T14:41:31.326Z,22.60
2019-02-20T14:44:37.880Z,22.60
2019-02-20T14:47:43.707Z,22.60
2019-02-20T14:50:49.679Z,22.60
2019-02-20T14:53:55.056Z,22.60
2019-02-20T14:57:00.821Z,22.70
2019-02-20T15:00:08.106Z,22.60
2019-02-20T15:03:13.553Z,22.70
2019-02-20T15:06:19.032Z,22.60
2019-02-20T15:09:25.127Z,22.60
2019-02-20T15:12:32.036Z,22.70
2019-02-20T15:15:39.265Z,22.70
2019-02-20T15:18:46.846Z,22.70
2019-02-20T15:21:52.244Z,22.80
2019-02-20T15:25:00.266Z,22.80
2019-02-20T15:28:05.730Z,22.80
2019-02-20T15:31:14.414Z,22.80
2019-02-20T15:34:19.801Z,22.80
2019-02-20T15:37:27.564Z,22.90
2019-02-20T15:40:34.782Z,22.90
2019-02-20T15:43:40.186Z,22.90
2019-02-20T15:46:45.894Z,22.90
2019-02-20T15:49:51.319Z,23.00
2019-02-20T15:52:56.763Z,23.00
2019-02-20T15:56:02.529Z,23.00
2019-02-20T15:59:09.253Z,23.00
2019-02-20T16:02:15.691Z,23.00
2019-02-20T16:05:22.754Z,23.10
2019-02-20T16:08:28.180Z,23.20
2019-02-20T16:11:33.883Z,23.30
2019-02-20T16:14:39.273Z,23.40
2019-02-20T16:17:44.937Z,23.40
2019-02-20T16:20:50.803Z,23.50
2019-02-20T16:23:56.373Z,23.50
2019-02-20T16:27:01.881Z,23.60
2019-02-20T16:30:09.150Z,23.70
2019-02-20T16:33:14.564Z,23.70
2019-02-20T16:36:20.090Z,23.70
2019-02-20T16:39:25.594Z,23.80
2019-02-20T16:42:31.017Z,23.80
2019-02-20T16:45:37.902Z,23.90
2019-02-20T16:48:43.327Z,23.90
2019-02-20T16:51:48.758Z,23.90
2019-02-20T16:54:55.083Z,23.90
2019-02-20T16:58:00.503Z,23.90
2019-02-20T17:01:08.051Z,23.90
2019-02-20T17:04:15.269Z,23.90
2019-02-20T17:07:21.690Z,23.80
2019-02-20T17:10:28.671Z,23.80
2019-02-20T17:13:34.092Z,23.70
2019-02-20T17:16:40.117Z,23.70
2019-02-20T17:19:45.540Z,23.70
2019-02-20T17:22:50.970Z,23.60
2019-02-20T17:25:56.384Z,23.50
2019-02-20T17:29:01.810Z,23.40
2019-02-20T17:32:09.167Z,23.30
2019-02-20T17:35:17.045Z,23.30
2019-02-20T17:38:22.371Z,23.20
2019-02-20T17:41:28.048Z,23.10
2019-02-20T17:44:33.446Z,23.00
2019-02-20T17:47:38.891Z,22.90
2019-02-20T17:50:44.312Z,22.90
2019-02-20T17:53:49.720Z,22.80
2019-02-20T17:56:55.216Z,22.70
2019-02-20T18:00:00.609Z,22.60
2019-02-20T18:03:07.043Z,22.60
2019-02-20T18:06:12.473Z,22.50
2019-02-20T18:09:17.948Z,22.50
2019-02-20T18:12:23.360Z,22.40
2019-02-20T18:15:28.804Z,22.30
2019-02-20T18:18:34.227Z,22.30
2019-02-20T18:21:40.773Z,22.20
2019-02-20T18:24:46.158Z,22.20
2019-02-20T18:27:55.241Z,22.10
2019-02-20T18:31:03.162Z,22.10
2019-02-20T18:34:08.563Z,22.00
2019-02-20T18:37:13.985Z,22.00
2019-02-20T18:40:23.025Z,21.90
2019-02-20T18:43:28.523Z,21.90
2019-02-20T18:46:34.236Z,21.80
2019-02-20T18:49:41.616Z,21.70
2019-02-20T18:52:47.421Z,21.60
2019-02-20T18:55:56.128Z,21.50
2019-02-20T18:59:01.690Z,21.50
2019-02-20T19:02:07.518Z,21.40
2019-02-20T19:05:14.124Z,21.30
2019-02-20T19:08:57.118Z,21.20
2019-02-20T19:12:39.042Z,21.20
2019-02-20T19:16:28.121Z,21.20
2019-02-20T19:20:41.593Z,21.10
2019-02-20T19:24:31.208Z,21.10
2019-02-20T19:27:58.532Z,21.00
2019-02-20T19:32:02.546Z,21.00
2019-02-20T19:35:37.915Z,20.90
2019-02-20T19:39:22.594Z,20.90
2019-02-20T19:43:27.355Z,20.80
2019-02-20T19:47:20.422Z,20.80
2019-02-20T19:51:25.426Z,20.70
2019-02-20T19:54:48.645Z,20.70
2019-02-20T19:58:54.422Z,20.60
2019-02-20T20:02:48.781Z,20.60
2019-02-20T20:06:51.005Z,20.60
2019-02-20T20:11:06.875Z,20.50
2019-02-20T20:15:38.758Z,20.50
2019-02-20T20:19:14.106Z,20.40
2019-02-20T20:22:58.822Z,20.40
2019-02-20T20:26:56.506Z,20.30
2019-02-20T20:31:10.108Z,20.40
2019-02-20T20:35:31.643Z,20.30
2019-02-20T20:39:36.888Z,20.30
2019-02-20T20:43:36.043Z,20.30
2019-02-20T20:47:34.521Z,20.30
2019-02-20T20:51:48.156Z,20.20
2019-02-20T20:55:49.382Z,20.20
2019-02-20T20:59:47.789Z,20.20
2019-02-20T21:03:01.791Z,20.10
2019-02-20T21:06:49.911Z,20.10
2019-02-20T21:10:38.337Z,20.10
2019-02-20T21:15:17.014Z,20.00
2019-02-20T21:18:58.892Z,20.00
2019-02-20T21:22:56.033Z,19.90
2019-02-20T21:27:15.943Z,19.90
2019-02-20T21:31:19.255Z,19.90
2019-02-20T21:35:15.097Z,19.80
2019-02-20T21:39:10.259Z,19.80
2019-02-20T21:43:11.188Z,19.80
2019-02-20T21:47:19.314Z,19.70
2019-02-20T21:50:56.598Z,19.70
2019-02-20T21:55:06.879Z,19.70
2019-02-20T21:59:08.143Z,19.70
2019-02-20T22:03:01.164Z,19.60
2019-02-20T22:07:07.694Z,19.60
2019-02-20T22:10:54.574Z,19.50
2019-02-20T22:14:46.545Z,19.50
2019-02-20T22:18:34.939Z,19.50
2019-02-20T22:22:54.389Z,19.40
2019-02-20T22:27:06.205Z,19.40
2019-02-20T22:30:56.430Z,19.40
2019-02-20T22:34:24.313Z,19.30
2019-02-20T22:38:36.501Z,19.30
2019-02-20T22:42:56.019Z,19.30
2019-02-20T22:46:45.660Z,19.20
2019-02-20T22:51:02.826Z,19.20
2019-02-20T22:54:48.248Z,19.20
2019-02-20T22:58:43.434Z,19.20
2019-02-20T23:02:34.038Z,19.10
2019-02-20T23:06:44.510Z,19.10
2019-02-20T23:10:26.647Z,19.10
2019-02-20T23:14:15.449Z,19.00
2019-02-20T23:17:20.886Z,19.00
2019-02-20T23:20:26.920Z,19.00
2019-02-20T23:23:32.340Z,19.00
2019-02-20T23:26:41.135Z,19.00
2019-02-20T23:29:47.379Z,19.00
2019-02-20T23:32:52.766Z,18.90
2019-02-20T23:36:00.022Z,18.90
2019-02-20T23:39:06.722Z,18.90
2019-02-20T23:42:12.454Z,18.90
2019-02-20T23:45:20.592Z,18.90
2019-02-20T23:48:26.017Z,18.80
2019-02-20T23:51:31.935Z,18.80
2019-02-20T23:54:38.841Z,18.80
2019-02-20T23:57:44.423Z,18.80
